METAR Data
IDs: Format: Raw Decoded Include TAF

Data at: 0054 UTC 20 Jul 2019

KCWF 192350Z 18007KT 10SM SCT033 30/25 A2999
KCWF 192250Z 22009KT 10SM SCT032 31/24 A2999
KCWF 192150Z 19007KT 10SM SCT040 32/23 A3000
KCWF 192055Z 19009KT 10SM SCT045 34/23 A3002
KCWF 191755Z 18008KT 10SM SCT045 33/23 A3007
KCWF 191655Z 2007KT 10SM SCT032 BKN046 32/24 A3007
KCWF 191555Z 18006KT 10SM SCT032 BKN046 32/25 A3007
KCWF 191450Z 18007KT 10SM SCT019 BKN025 31/25 A3006
KCWF 191355Z 19003KT 7SM SCT025 30/26 A3006
KCWF 191246Z 00000KT 7SM SKC 27/25 A3004
KCWF 191147Z 00000KT 7SM SKC 25/24 A3002
KCWF 191100Z 00000KT 10SM SKC 25/24 A3001
KCWF 191035Z AUTO 13003KT 10SM CLR 25/24 A3000 RMK AO2 T02470241
KCWF 191015Z AUTO 11005KT 10SM CLR 25/24 A3000 RMK AO2 T02510245
KCWF 190955Z AUTO 12005KT 10SM CLR 25/24 A3000 RMK AO2 T02470243
KCWF 190935Z AUTO 14004KT 10SM CLR 25/24 A3000 RMK AO2 T02470243
KCWF 190915Z AUTO 15003KT 7SM CLR 25/24 A3000 RMK AO2 T02460242
KCWF 190855Z AUTO 00000KT 7SM CLR 25/24 A3000 RMK AO2 T02500245
KCWF 190835Z AUTO 14003KT 7SM CLR 25/24 A3000 RMK AO2 T02480244
KCWF 190815Z AUTO 14003KT 10SM CLR 25/24 A3000 RMK AO2 T02480243
KCWF 190755Z AUTO 11006KT 10SM CLR 25/24 A3001 RMK AO2 T02480245
KCWF 190735Z AUTO 00000KT 10SM CLR 25/25 A3001 RMK AO2 T02520246
KCWF 190715Z AUTO 11003KT 10SM CLR 25/25 A3002 RMK AO2 T02550249
KCWF 190655Z AUTO 09006KT 10SM CLR 25/25 A3002 RMK AO2 T02550250
KCWF 190635Z AUTO 13003KT 10SM CLR 25/25 A3002 RMK AO2 T02530247
KCWF 190615Z AUTO 11007KT 10SM CLR 25/25 A3002 RMK AO2 T02550248
KCWF 190555Z AUTO 11006KT 10SM CLR 26/25 A3002 RMK AO2 T02560248 10313 20256 403370242
KCWF 190535Z AUTO 11006KT 10SM SCT020 26/25 A3002 RMK AO2 T02630251
KCWF 190515Z AUTO 10006KT 10SM SCT020 SCT028 26/25 A3003 RMK AO2 T02580250
KCWF 190455Z AUTO 10007KT 10SM BKN020 BKN026 26/25 A3003 RMK AO2 T02610250
KCWF 190435Z AUTO 10007KT 10SM SCT020 26/25 A3003 RMK AO2 T02570247
KCWF 190415Z AUTO 12006KT 10SM CLR 26/25 A3002 RMK AO2 T02600248
KCWF 190355Z AUTO 12006KT 10SM CLR 26/25 A3002 RMK AO2 T02650249
KCWF 190335Z AUTO 13006KT 10SM CLR 26/25 A3002 RMK AO2 T02650250
KCWF 190315Z AUTO 12007KT 10SM CLR 26/25 A3002 RMK AO2 T02580247
KCWF 190250Z 11007KT 10SM SKC 27/25 A3002 RMK LAST
KCWF 190155Z 17004KT 10SM SKC 28/25 A3000
KCWF 190055Z 19008KT 10SM SKC 30/25 A3000
KCWF 182350Z 20008KT 10SM SKC 31/23 A2999
KCWF 182250Z 21011KT 10SM SCT032 32/24 A3000
KCWF 182055Z 19009G15KT 10SM SCT034 33/24 A3002
KCWF 181750Z 16006KT 10SM SCT050 32/24 A3007
KCWF 181650Z 20004KT 10SM SCT033 32/23 A3008
KCWF 181450Z 20005KT 10SM SCT015 30/25 A3007
KCWF 181350Z 20005KT 10SM CLR 29/26 A3007